createdAt,value
2024-01-20T00:00:57.479Z,1.75
2024-01-20T00:03:25.661Z,1.42
2024-01-20T00:05:54.603Z,0.80
2024-01-20T00:08:23.002Z,1.45
2024-01-20T00:10:51.061Z,1.40
2024-01-20T00:13:19.221Z,1.30
2024-01-20T00:15:47.387Z,1.60
2024-01-20T00:18:15.730Z,1.10
2024-01-20T00:20:44.362Z,1.40
2024-01-20T00:23:12.762Z,1.10
2024-01-20T00:25:42.406Z,1.73
2024-01-20T00:28:10.446Z,1.02
2024-01-20T00:30:38.466Z,1.33
2024-01-20T00:33:10.358Z,1.33
2024-01-20T00:35:38.703Z,1.02
2024-01-20T00:38:07.756Z,1.10
2024-01-20T00:40:35.638Z,1.30
2024-01-20T00:43:04.340Z,1.30
2024-01-20T00:45:32.063Z,1.00
2024-01-20T00:48:00.042Z,1.95
2024-01-20T00:50:27.812Z,1.40
2024-01-20T00:52:55.397Z,1.38
2024-01-20T00:55:23.205Z,1.00
2024-01-20T00:57:51.095Z,1.45
2024-01-20T01:00:18.886Z,1.27
2024-01-20T01:02:46.887Z,1.20
2024-01-20T01:05:15.041Z,1.10
2024-01-20T01:07:42.765Z,0.90
2024-01-20T01:10:11.080Z,0.80
2024-01-20T01:12:38.861Z,1.38
2024-01-20T01:15:07.182Z,1.25
2024-01-20T01:17:35.023Z,0.93
2024-01-20T01:20:03.157Z,1.10
2024-01-20T01:22:30.961Z,1.20
2024-01-20T01:24:58.645Z,1.25
2024-01-20T01:27:26.342Z,1.00
2024-01-20T01:29:53.980Z,0.90
2024-01-20T01:32:21.792Z,0.90
2024-01-20T01:34:49.705Z,1.52
2024-01-20T01:37:17.364Z,1.27
2024-01-20T01:39:44.918Z,0.98
2024-01-20T01:42:12.710Z,0.93
2024-01-20T01:44:40.492Z,1.30
2024-01-20T01:47:08.466Z,1.73
2024-01-20T01:49:36.484Z,0.90
2024-01-20T01:52:05.029Z,1.33
2024-01-20T01:54:33.624Z,1.45
2024-01-20T01:57:02.322Z,0.90
2024-01-20T01:59:30.840Z,0.90
2024-01-20T02:01:58.587Z,1.52
2024-01-20T02:04:27.090Z,0.93
2024-01-20T02:06:55.182Z,1.05
2024-01-20T02:09:23.902Z,1.23
2024-01-20T02:11:52.404Z,1.08
2024-01-20T02:14:21.651Z,1.25
2024-01-20T02:16:50.014Z,1.55
2024-01-20T02:19:18.289Z,1.77
2024-01-20T02:21:46.069Z,1.15
2024-01-20T02:24:14.700Z,1.73
2024-01-20T02:26:42.574Z,1.52
2024-01-20T02:29:10.819Z,2.13
2024-01-20T02:31:39.779Z,2.75
2024-01-20T02:34:07.811Z,2.15
2024-01-20T02:36:35.854Z,3.00
2024-01-20T02:39:03.860Z,1.85
2024-01-20T02:41:31.750Z,2.30
2024-01-20T02:43:59.515Z,2.42
2024-01-20T02:46:27.223Z,1.70
2024-01-20T02:48:55.027Z,1.92
2024-01-20T02:51:22.725Z,1.13
2024-01-20T02:53:50.659Z,1.33
2024-01-20T02:56:18.509Z,1.48
2024-01-20T02:58:46.275Z,1.13
2024-01-20T03:01:13.992Z,1.63
2024-01-20T03:03:41.726Z,1.85
2024-01-20T03:06:09.626Z,1.40
2024-01-20T03:08:37.589Z,1.00
2024-01-20T03:11:05.644Z,1.55
2024-01-20T03:13:33.357Z,1.17
2024-01-20T03:16:01.095Z,1.42
2024-01-20T03:18:29.050Z,1.20
2024-01-20T03:20:56.823Z,1.52
2024-01-20T03:23:24.581Z,1.73
2024-01-20T03:25:52.383Z,1.10
2024-01-20T03:28:20.283Z,0.90
2024-01-20T03:30:47.983Z,1.25
2024-01-20T03:33:15.856Z,0.70
2024-01-20T03:35:43.660Z,1.20
2024-01-20T03:38:11.339Z,0.90
2024-01-20T03:40:39.165Z,0.80
2024-01-20T03:43:07.098Z,0.90
2024-01-20T03:45:34.897Z,0.68
2024-01-20T03:48:03.018Z,1.00
2024-01-20T03:50:31.043Z,0.80
2024-01-20T03:52:58.726Z,1.17
2024-01-20T03:55:26.357Z,0.70
2024-01-20T03:57:54.423Z,0.88
2024-01-20T04:00:22.414Z,0.70
2024-01-20T04:02:51.486Z,0.85
2024-01-20T04:05:19.446Z,1.00
2024-01-20T04:07:47.636Z,1.00
2024-01-20T04:10:16.021Z,1.95
2024-01-20T04:12:44.972Z,1.00
2024-01-20T04:15:12.959Z,0.80
2024-01-20T04:17:40.639Z,0.95
2024-01-20T04:20:09.526Z,0.88
2024-01-20T04:22:37.297Z,0.80
2024-01-20T04:25:05.434Z,0.80
2024-01-20T04:27:33.709Z,1.00
2024-01-20T04:30:01.891Z,1.00
2024-01-20T04:32:29.624Z,0.88
2024-01-20T04:34:57.309Z,0.80
2024-01-20T04:37:25.037Z,0.70
2024-01-20T04:39:52.836Z,0.85
2024-01-20T04:42:20.756Z,0.80
2024-01-20T04:44:48.338Z,0.88
2024-01-20T04:47:16.019Z,1.02
2024-01-20T04:49:43.717Z,0.80
2024-01-20T04:52:11.448Z,1.02
2024-01-20T04:54:39.327Z,0.80
2024-01-20T04:57:07.226Z,1.25
2024-01-20T04:59:34.964Z,1.27
2024-01-20T05:02:02.677Z,1.75
2024-01-20T05:04:30.540Z,0.90
2024-01-20T05:06:58.461Z,1.55
2024-01-20T05:09:26.305Z,0.90
2024-01-20T05:11:54.099Z,1.00
2024-01-20T05:14:22.244Z,1.45
2024-01-20T05:16:50.046Z,1.10
2024-01-20T05:19:17.869Z,1.30
2024-01-20T05:21:45.757Z,1.23
2024-01-20T05:24:15.399Z,0.93
2024-01-20T05:26:43.119Z,1.02
2024-01-20T05:29:10.837Z,1.00
2024-01-20T05:31:38.659Z,1.00
2024-01-20T05:34:06.503Z,1.38
2024-01-20T05:36:35.007Z,0.85
2024-01-20T05:39:02.690Z,0.90
2024-01-20T05:41:30.313Z,1.20
2024-01-20T05:43:58.790Z,1.02
2024-01-20T05:46:26.648Z,0.90
2024-01-20T05:48:54.406Z,1.10
2024-01-20T05:51:22.161Z,1.30
2024-01-20T05:53:49.718Z,3.00
2024-01-20T05:56:21.468Z,1.40
2024-01-20T05:58:49.296Z,1.35
2024-01-20T06:01:18.433Z,1.00
2024-01-20T06:03:46.597Z,1.25
2024-01-20T06:06:14.527Z,1.40
2024-01-20T06:08:42.545Z,1.17
2024-01-20T06:11:11.747Z,1.60
2024-01-20T06:13:39.419Z,1.38
2024-01-20T06:16:07.971Z,1.40
2024-01-20T06:18:35.918Z,1.73
2024-01-20T06:21:03.648Z,1.65
2024-01-20T06:23:31.473Z,2.40
2024-01-20T06:26:00.658Z,1.20
2024-01-20T06:28:29.149Z,1.10
2024-01-20T06:30:57.521Z,1.17
2024-01-20T06:33:25.526Z,1.60
2024-01-20T06:35:53.378Z,1.77
2024-01-20T06:38:21.136Z,1.00
2024-01-20T06:40:48.675Z,1.30
2024-01-20T06:43:16.274Z,1.52
2024-01-20T06:45:43.888Z,1.83
2024-01-20T06:48:12.133Z,1.40
2024-01-20T06:50:44.690Z,1.00
2024-01-20T06:53:12.684Z,1.25
2024-01-20T06:55:40.348Z,1.58
2024-01-20T06:58:07.888Z,1.40
2024-01-20T07:00:35.636Z,1.33
2024-01-20T07:03:05.413Z,1.60
2024-01-20T07:05:33.241Z,1.45
2024-01-20T07:08:00.970Z,1.58
2024-01-20T07:10:28.782Z,1.45
2024-01-20T07:12:56.502Z,1.27
2024-01-20T07:15:24.485Z,1.30
2024-01-20T07:17:52.349Z,1.02
2024-01-20T07:20:20.326Z,1.20
2024-01-20T07:22:48.069Z,1.80
2024-01-20T07:25:16.200Z,1.52
2024-01-20T07:27:43.797Z,1.60
2024-01-20T07:30:11.801Z,0.90
2024-01-20T07:32:42.539Z,1.27
2024-01-20T07:35:10.684Z,1.23
2024-01-20T07:37:39.062Z,1.23
2024-01-20T07:40:07.656Z,1.17
2024-01-20T07:42:36.051Z,1.00
2024-01-20T07:45:04.265Z,1.10
2024-01-20T07:47:32.287Z,1.27
2024-01-20T07:50:00.343Z,1.60
2024-01-20T07:52:28.220Z,1.20
2024-01-20T07:54:55.916Z,1.50
2024-01-20T07:57:23.762Z,1.02
2024-01-20T07:59:51.714Z,1.00
2024-01-20T08:02:19.796Z,1.20
2024-01-20T08:04:47.657Z,2.03
2024-01-20T08:07:15.605Z,1.42
2024-01-20T08:09:43.257Z,1.10
2024-01-20T08:12:11.050Z,1.60
2024-01-20T08:14:39.030Z,1.42
2024-01-20T08:17:06.865Z,1.20
2024-01-20T08:19:34.885Z,2.08
2024-01-20T08:22:03.108Z,1.58
2024-01-20T08:24:31.986Z,1.17
2024-01-20T08:26:59.828Z,1.75
2024-01-20T08:29:27.680Z,2.20
2024-01-20T08:31:57.061Z,1.90
2024-01-20T08:34:25.097Z,3.17
2024-01-20T08:36:53.068Z,1.30
2024-01-20T08:39:21.078Z,1.52
2024-01-20T08:41:48.863Z,1.63
2024-01-20T08:44:16.594Z,1.73
2024-01-20T08:46:44.358Z,1.50
2024-01-20T08:49:12.188Z,1.70
2024-01-20T08:51:40.490Z,2.47
2024-01-20T08:54:08.795Z,1.23
2024-01-20T08:56:36.555Z,1.23
2024-01-20T08:59:04.320Z,1.90
2024-01-20T09:01:32.018Z,1.50
2024-01-20T09:03:59.638Z,1.92
2024-01-20T09:06:27.488Z,1.67
2024-01-20T09:08:55.325Z,1.98
2024-01-20T09:11:23.341Z,1.95
2024-01-20T09:13:51.004Z,1.98
2024-01-20T09:16:19.312Z,2.20
2024-01-20T09:18:47.258Z,2.08
2024-01-20T09:21:15.159Z,2.08
2024-01-20T09:23:43.120Z,1.75
2024-01-20T09:26:10.855Z,1.88
2024-01-20T09:28:38.539Z,1.55
2024-01-20T09:31:06.246Z,2.22
2024-01-20T09:33:36.369Z,1.70
2024-01-20T09:36:04.527Z,2.08
2024-01-20T09:38:32.337Z,2.00
2024-01-20T09:41:00.032Z,1.85
2024-01-20T09:43:27.582Z,1.95
2024-01-20T09:45:57.480Z,1.77
2024-01-20T09:48:26.114Z,2.28
2024-01-20T09:50:54.345Z,1.60
2024-01-20T09:53:22.414Z,1.70
2024-01-20T09:55:50.654Z,1.52
2024-01-20T09:58:18.789Z,1.25
2024-01-20T10:00:47.667Z,1.98
2024-01-20T10:03:18.697Z,1.55
2024-01-20T10:05:46.434Z,1.58
2024-01-20T10:08:14.246Z,1.90
2024-01-20T10:10:41.828Z,1.40
2024-01-20T10:13:09.450Z,2.08
2024-01-20T10:15:37.444Z,2.03
2024-01-20T10:18:10.173Z,1.70
2024-01-20T10:20:38.453Z,1.80
2024-01-20T10:23:07.681Z,1.85
2024-01-20T10:25:35.379Z,2.42
2024-01-20T10:28:03.351Z,1.33
2024-01-20T10:30:31.580Z,1.40
2024-01-20T10:33:09.143Z,1.85
2024-01-20T10:35:39.636Z,2.17
2024-01-20T10:38:14.122Z,1.40
2024-01-20T10:40:44.213Z,1.55
2024-01-20T10:43:17.286Z,1.02
2024-01-20T10:46:25.573Z,2.13
2024-01-20T10:48:55.439Z,2.08
2024-01-20T10:51:34.735Z,1.58
2024-01-20T10:54:04.151Z,1.40
2024-01-20T10:56:33.174Z,1.52
2024-01-20T10:59:29.092Z,1.60
2024-01-20T11:01:57.109Z,2.08
2024-01-20T11:04:25.424Z,1.88
2024-01-20T11:06:55.157Z,1.20
2024-01-20T11:09:23.708Z,1.73
2024-01-20T11:12:08.297Z,1.55
2024-01-20T11:14:36.929Z,1.85
2024-01-20T11:17:12.568Z,1.60
2024-01-20T11:19:40.766Z,1.15
2024-01-20T11:22:31.647Z,0.93
2024-01-20T11:25:03.836Z,1.48
2024-01-20T11:27:31.497Z,2.88
2024-01-20T11:30:13.239Z,1.27
2024-01-20T11:32:41.968Z,1.00
2024-01-20T11:35:10.157Z,1.30
2024-01-20T11:37:37.880Z,1.50
2024-01-20T11:40:09.984Z,1.45
2024-01-20T11:42:39.707Z,1.20
2024-01-20T11:45:07.982Z,0.90
2024-01-20T11:47:35.979Z,1.35
2024-01-20T11:50:03.952Z,1.40
2024-01-20T11:52:31.495Z,1.70
2024-01-20T11:54:59.000Z,1.10
2024-01-20T11:57:28.624Z,1.95
2024-01-20T11:59:56.152Z,1.30
2024-01-20T12:02:24.072Z,0.95
2024-01-20T12:04:53.582Z,0.93
2024-01-20T12:07:25.109Z,1.23
2024-01-20T12:09:52.755Z,1.05
2024-01-20T12:12:20.938Z,0.75
2024-01-20T12:14:48.500Z,1.00
2024-01-20T12:17:16.478Z,1.00
2024-01-20T12:19:44.332Z,0.93
2024-01-20T12:22:15.443Z,1.45
2024-01-20T12:24:50.294Z,0.80
2024-01-20T12:27:18.101Z,1.20
2024-01-20T12:29:45.835Z,0.68
2024-01-20T12:32:13.356Z,1.20
2024-01-20T12:34:40.902Z,1.23
2024-01-20T12:37:09.101Z,1.23
2024-01-20T12:39:36.938Z,1.00
2024-01-20T12:42:04.763Z,0.80
2024-01-20T12:44:32.366Z,0.90
2024-01-20T12:46:59.775Z,0.95
2024-01-20T12:49:27.446Z,1.50
2024-01-20T12:51:55.455Z,1.30
2024-01-20T12:54:23.143Z,1.00
2024-01-20T12:56:50.873Z,1.48
2024-01-20T12:59:18.367Z,0.70
2024-01-20T13:01:45.948Z,0.77
2024-01-20T13:04:13.582Z,0.90
2024-01-20T13:06:41.250Z,0.95
2024-01-20T13:09:11.518Z,1.42
2024-01-20T13:11:39.108Z,0.80
2024-01-20T13:14:06.968Z,0.70
2024-01-20T13:16:34.554Z,1.27
2024-01-20T13:19:02.564Z,1.05
2024-01-20T13:21:30.308Z,0.82
2024-01-20T13:23:57.840Z,0.95
2024-01-20T13:26:25.378Z,0.68
2024-01-20T13:28:52.803Z,1.00
2024-01-20T13:31:20.474Z,0.70
2024-01-20T13:33:48.498Z,0.70
2024-01-20T13:36:16.095Z,0.80
2024-01-20T13:38:45.038Z,0.80
2024-01-20T13:41:12.702Z,1.00
2024-01-20T13:43:40.105Z,0.90
2024-01-20T13:46:07.674Z,1.13
2024-01-20T13:48:35.404Z,0.98
2024-01-20T13:51:03.223Z,1.20
2024-01-20T13:53:31.639Z,0.70
2024-01-20T13:55:59.306Z,0.88
2024-01-20T13:58:26.822Z,1.02
2024-01-20T14:00:54.402Z,0.90
2024-01-20T14:03:22.088Z,1.00
2024-01-20T14:05:50.561Z,1.38
2024-01-20T14:08:18.382Z,1.27
2024-01-20T14:10:45.941Z,0.70
2024-01-20T14:13:13.450Z,0.90
2024-01-20T14:15:40.934Z,1.15
2024-01-20T14:18:10.407Z,1.00
2024-01-20T14:20:37.935Z,1.20
2024-01-20T14:23:05.389Z,1.30
2024-01-20T14:25:32.844Z,1.30
2024-01-20T14:28:02.325Z,1.40
2024-01-20T14:30:29.928Z,1.13
2024-01-20T14:32:57.394Z,0.95
2024-01-20T14:35:26.993Z,1.83
2024-01-20T14:37:54.621Z,1.58
2024-01-20T14:40:22.197Z,1.15
2024-01-20T14:42:51.413Z,1.27
2024-01-20T14:45:19.750Z,1.05
2024-01-20T14:47:47.213Z,0.88
2024-01-20T14:50:14.687Z,0.90
2024-01-20T14:52:42.144Z,1.13
2024-01-20T14:55:09.879Z,1.10
2024-01-20T14:57:37.548Z,1.00
2024-01-20T15:00:08.705Z,1.30
2024-01-20T15:02:36.314Z,1.33
2024-01-20T15:05:03.846Z,1.92
2024-01-20T15:07:34.695Z,1.05
2024-01-20T15:10:02.617Z,1.08
2024-01-20T15:12:30.020Z,1.00
2024-01-20T15:14:57.616Z,1.42
2024-01-20T15:17:25.049Z,0.80
2024-01-20T15:19:52.543Z,1.02
2024-01-20T15:22:20.106Z,0.98
2024-01-20T15:24:47.965Z,0.90
2024-01-20T15:27:15.659Z,1.55
2024-01-20T15:29:43.257Z,1.55
2024-01-20T15:32:11.472Z,1.20
2024-01-20T15:34:39.343Z,1.10
2024-01-20T15:37:07.092Z,1.85
2024-01-20T15:39:34.660Z,1.00
2024-01-20T15:42:02.272Z,1.48
2024-01-20T15:44:29.816Z,1.05
2024-01-20T15:46:57.290Z,1.13
2024-01-20T15:49:24.892Z,0.90
2024-01-20T15:51:52.592Z,0.90
2024-01-20T15:54:20.187Z,0.90
2024-01-20T15:56:47.662Z,1.00
2024-01-20T15:59:15.174Z,1.17
2024-01-20T16:01:42.784Z,1.35
2024-01-20T16:04:10.557Z,1.00
2024-01-20T16:06:40.242Z,1.02
2024-01-20T16:09:07.970Z,1.30
2024-01-20T16:11:35.728Z,1.10
2024-01-20T16:14:04.524Z,1.15
2024-01-20T16:16:32.043Z,1.10
2024-01-20T16:19:00.051Z,1.35
2024-01-20T16:21:28.659Z,1.13
2024-01-20T16:23:56.181Z,1.10
2024-01-20T16:26:23.757Z,1.60
2024-01-20T16:28:51.574Z,1.30
2024-01-20T16:31:19.359Z,1.08
2024-01-20T16:33:46.994Z,1.40
2024-01-20T16:36:19.980Z,1.40
2024-01-20T16:38:47.770Z,1.10
2024-01-20T16:41:15.395Z,1.45
2024-01-20T16:43:42.876Z,1.00
2024-01-20T16:46:11.220Z,1.10
2024-01-20T16:48:38.711Z,1.10
2024-01-20T16:51:14.754Z,1.30
2024-01-20T16:53:45.754Z,1.10
2024-01-20T16:56:13.382Z,1.45
2024-01-20T16:58:40.848Z,0.88
2024-01-20T17:01:08.422Z,0.80
2024-01-20T17:03:36.495Z,1.08
2024-01-20T17:06:04.293Z,1.02
2024-01-20T17:08:31.710Z,1.40
2024-01-20T17:10:59.167Z,1.30
2024-01-20T17:13:26.762Z,1.15
2024-01-20T17:15:54.290Z,0.85
2024-01-20T17:18:21.889Z,0.85
2024-01-20T17:20:49.487Z,0.90
2024-01-20T17:23:17.079Z,1.17
2024-01-20T17:25:45.038Z,0.93
2024-01-20T17:28:12.811Z,1.00
2024-01-20T17:30:40.346Z,0.95
2024-01-20T17:33:08.204Z,0.93
2024-01-20T17:35:35.950Z,1.23
2024-01-20T17:38:03.763Z,1.52
2024-01-20T17:40:31.373Z,1.13
2024-01-20T17:42:58.816Z,0.90
2024-01-20T17:45:26.383Z,1.00
2024-01-20T17:47:55.777Z,1.30
2024-01-20T17:50:25.399Z,1.15
2024-01-20T17:52:53.027Z,0.90
2024-01-20T17:55:20.474Z,0.90
2024-01-20T17:57:50.314Z,1.20
2024-01-20T18:00:18.567Z,1.25
2024-01-20T18:02:48.333Z,1.25
2024-01-20T18:05:16.143Z,0.90
2024-01-20T18:07:46.828Z,1.67
2024-01-20T18:10:16.366Z,1.33
2024-01-20T18:12:44.714Z,1.13
2024-01-20T18:15:12.498Z,1.67
2024-01-20T18:17:39.963Z,1.15
2024-01-20T18:20:08.436Z,1.48
2024-01-20T18:22:36.201Z,1.85
2024-01-20T18:25:03.946Z,0.85
2024-01-20T18:27:31.723Z,1.40
2024-01-20T18:29:59.381Z,1.10
2024-01-20T18:32:26.875Z,1.33
2024-01-20T18:34:54.384Z,1.20
2024-01-20T18:37:21.924Z,1.75
2024-01-20T18:39:49.392Z,1.67
2024-01-20T18:42:20.671Z,1.58
2024-01-20T18:44:48.642Z,1.98
2024-01-20T18:47:17.276Z,2.03
2024-01-20T18:49:45.177Z,1.92
2024-01-20T18:52:12.862Z,2.47
2024-01-20T18:54:43.218Z,2.25
2024-01-20T18:57:13.123Z,2.38
2024-01-20T18:59:41.935Z,2.03
2024-01-20T19:02:09.517Z,2.53
2024-01-20T19:04:39.622Z,2.45
2024-01-20T19:07:07.312Z,3.42
2024-01-20T19:09:34.857Z,3.38
2024-01-20T19:12:02.825Z,2.83
2024-01-20T19:14:30.545Z,3.13
2024-01-20T19:16:57.983Z,2.30
2024-01-20T19:19:27.581Z,3.80
2024-01-20T19:21:55.604Z,3.63
2024-01-20T19:24:26.252Z,3.63
2024-01-20T19:26:53.828Z,3.45
2024-01-20T19:29:23.219Z,4.10
2024-01-20T19:31:50.869Z,3.53
2024-01-20T19:34:19.129Z,3.60
2024-01-20T19:36:47.130Z,3.45
2024-01-20T19:39:14.726Z,4.85
2024-01-20T19:41:42.177Z,4.50
2024-01-20T19:44:10.171Z,3.20
2024-01-20T19:46:41.141Z,3.60
2024-01-20T19:49:09.099Z,3.63
2024-01-20T19:51:43.739Z,4.05
2024-01-20T19:54:12.980Z,4.43
2024-01-20T19:56:47.093Z,4.70
2024-01-20T19:59:16.914Z,2.88
2024-01-20T20:01:46.412Z,4.03
2024-01-20T20:04:18.910Z,3.35
2024-01-20T20:06:53.585Z,4.03
2024-01-20T20:11:48.910Z,4.28
2024-01-20T20:14:21.650Z,4.13
2024-01-20T20:16:49.178Z,3.67
2024-01-20T20:19:16.753Z,4.22
2024-01-20T20:21:44.723Z,4.07
2024-01-20T20:24:12.364Z,3.65
2024-01-20T20:26:44.220Z,4.72
2024-01-20T20:29:13.124Z,4.50
2024-01-20T20:31:41.306Z,4.13
2024-01-20T20:34:09.191Z,4.57
2024-01-20T20:36:38.806Z,4.22
2024-01-20T20:39:07.013Z,5.00
2024-01-20T20:41:34.824Z,4.22
2024-01-20T20:44:02.386Z,3.25
2024-01-20T20:46:29.931Z,3.85
2024-01-20T20:48:57.345Z,3.42
2024-01-20T20:51:25.451Z,3.83
2024-01-20T20:53:52.934Z,3.63
2024-01-20T20:56:20.636Z,3.50
2024-01-20T20:58:48.476Z,4.20
2024-01-20T21:01:16.043Z,2.83
2024-01-20T21:03:43.620Z,4.00
2024-01-20T21:06:11.552Z,3.17
2024-01-20T21:08:38.998Z,3.55
2024-01-20T21:11:07.954Z,2.67
2024-01-20T21:13:35.630Z,2.53
2024-01-20T21:16:03.589Z,2.08
2024-01-20T21:18:31.470Z,2.00
2024-01-20T21:20:59.088Z,2.40
2024-01-20T21:23:26.940Z,1.70
2024-01-20T21:25:56.976Z,2.75
2024-01-20T21:28:24.745Z,1.52
2024-01-20T21:30:54.944Z,1.40
2024-01-20T21:33:25.245Z,1.80
2024-01-20T21:35:53.272Z,1.38
2024-01-20T21:38:20.774Z,2.33
2024-01-20T21:40:49.907Z,1.33
2024-01-20T21:43:17.347Z,1.95
2024-01-20T21:45:45.681Z,1.50
2024-01-20T21:48:15.169Z,1.60
2024-01-20T21:50:43.861Z,0.80
2024-01-20T21:53:11.472Z,1.38
2024-01-20T21:55:39.396Z,1.15
2024-01-20T21:58:09.939Z,0.90
2024-01-20T22:00:38.426Z,1.08
2024-01-20T22:03:06.167Z,1.08
2024-01-20T22:05:34.071Z,1.63
2024-01-20T22:08:01.874Z,1.48
2024-01-20T22:10:29.888Z,1.20
2024-01-20T22:12:57.451Z,0.90
2024-01-20T22:15:25.993Z,1.20
2024-01-20T22:17:53.696Z,1.23
2024-01-20T22:20:21.233Z,1.25
2024-01-20T22:22:48.672Z,1.00
2024-01-20T22:25:16.898Z,1.45
2024-01-20T22:27:44.410Z,0.95
2024-01-20T22:30:12.540Z,1.10
2024-01-20T22:32:40.827Z,1.90
2024-01-20T22:35:09.016Z,1.55
2024-01-20T22:37:36.468Z,2.05
2024-01-20T22:40:05.166Z,1.17
2024-01-20T22:42:32.671Z,1.08
2024-01-20T22:45:00.333Z,1.17
2024-01-20T22:47:27.796Z,1.63
2024-01-20T22:49:55.568Z,1.98
2024-01-20T22:52:23.222Z,2.15
2024-01-20T22:54:50.692Z,1.20
2024-01-20T22:57:22.274Z,0.95
2024-01-20T22:59:49.791Z,1.00
2024-01-20T23:02:17.513Z,1.08
2024-01-20T23:04:45.107Z,1.77
2024-01-20T23:07:12.756Z,1.25
2024-01-20T23:09:40.753Z,1.30
2024-01-20T23:12:08.460Z,2.28
2024-01-20T23:14:37.038Z,1.35
2024-01-20T23:17:04.982Z,1.85
2024-01-20T23:19:32.899Z,1.52
2024-01-20T23:22:00.470Z,1.77
2024-01-20T23:24:27.946Z,1.40
2024-01-20T23:26:55.486Z,1.30
2024-01-20T23:29:22.849Z,1.10
2024-01-20T23:31:50.756Z,1.42
2024-01-20T23:34:18.621Z,1.42
2024-01-20T23:36:46.350Z,1.05
2024-01-20T23:39:15.336Z,1.65
2024-01-20T23:41:43.050Z,0.90
2024-01-20T23:44:11.560Z,1.45
2024-01-20T23:46:39.090Z,1.27
2024-01-20T23:49:06.497Z,1.02
2024-01-20T23:51:34.738Z,0.95
2024-01-20T23:54:02.587Z,1.30
2024-01-20T23:56:30.195Z,1.30
2024-01-20T23:58:58.698Z,1.10
